Time;durP1;ratioP1;P1;durP2;ratioP2;P2;SDS_P1;SDS_P2;PMS_P1;PMS_P2;Temp;Humidity;BMP_temperature;BMP_pressure;BME280_temperature;BME280_humidity;BME280_pressure;Samples;Min_cycle;Max_cycle;Signal;HPM_P1;HPM_P2
2023/03/09 00:00:42;;;;;;;;;;;;;;;18.44;57.75;98752.33;2234498;78;50706;-74
2023/03/09 00:03:44;;;;;;;;;;;;;;;18.45;57.70;98757.19;2259558;77;50470;-74
2023/03/09 00:06:45;;;;;;;;;;;;;;;18.48;57.59;98761.55;2275762;77;50466;-74
2023/03/09 00:09:48;;;;;;;;;;;;;;;18.52;57.57;98775.83;2294264;77;51117;-74
2023/03/09 00:12:49;;;;;;;;;;;;;;;18.56;57.44;98768.98;2294310;77;51613;-74
2023/03/09 00:15:51;;;;;;;;;;;;;;;18.60;57.31;98766.12;2266993;78;50423;-74
2023/03/09 00:18:53;;;;;;;;;;;;;;;18.63;57.20;98756.31;2266589;78;50209;-74
2023/03/09 00:21:55;;;;;;;;;;;;;;;18.65;57.16;98760.39;2268780;77;52530;-74
2023/03/09 00:24:56;;;;;;;;;;;;;;;18.69;57.06;98762.08;2266849;78;50564;-74
2023/03/09 00:27:58;;;;;;;;;;;;;;;18.74;56.95;98754.70;2294342;77;50492;-74
2023/03/09 00:31:01;;;;;;;;;;;;;;;18.78;56.84;98751.36;2294419;77;50792;-74
2023/03/09 00:34:03;;;;;;;;;;;;;;;18.80;56.79;98759.16;2267247;75;51679;-74
2023/03/09 00:37:04;;;;;;;;;;;;;;;18.85;56.65;98764.11;2232676;78;50436;-74
2023/03/09 00:40:09;;;;;;;;;;;;;;;18.90;56.60;98758.06;2227586;80;51591;-74
2023/03/09 00:43:09;;;;;;;;;;;;;;;18.93;56.53;98755.75;2228100;79;22205;-74
2023/03/09 00:46:11;;;;;;;;;;;;;;;18.95;56.50;98758.19;2205686;80;51216;-74
2023/03/09 00:49:13;;;;;;;;;;;;;;;19.02;56.38;98764.27;2227760;80;51687;-74
2023/03/09 00:52:15;;;;;;;;;;;;;;;19.07;56.26;98769.74;2227999;79;50756;-74
2023/03/09 00:55:17;;;;;;;;;;;;;;;19.10;56.20;98761.23;2227815;80;51572;-74
2023/03/09 00:58:18;;;;;;;;;;;;;;;19.16;56.09;98762.16;2203555;79;51652;-75
2023/03/09 01:01:20;;;;;;;;;;;;;;;19.21;56.24;98762.28;2227834;79;51480;-74
2023/03/09 01:04:22;;;;;;;;;;;;;;;19.28;56.09;98758.96;2251210;77;51543;-75
2023/03/09 01:07:23;;;;;;;;;;;;;;;19.32;55.92;98759.33;2228811;78;50474;-73
2023/03/09 01:10:25;;;;;;;;;;;;;;;19.36;55.84;98747.88;2203751;79;51704;-72
2023/03/09 01:13:27;;;;;;;;;;;;;;;19.38;55.73;98736.92;2227984;79;50764;-72
2023/03/09 01:16:28;;;;;;;;;;;;;;;19.39;55.69;98736.39;2228192;79;50538;-74
2023/03/09 01:19:30;;;;;;;;;;;;;;;19.34;55.75;98735.25;2251942;77;50440;-73
2023/03/09 01:22:32;;;;;;;;;;;;;;;19.29;56.03;98737.82;2266255;77;52421;-73
2023/03/09 01:25:34;;;;;;;;;;;;;;;19.24;56.03;98726.98;2244016;78;50247;-73
2023/03/09 01:28:35;;;;;;;;;;;;;;;19.17;56.12;98728.15;2266851;78;50783;-73
2023/03/09 01:31:37;;;;;;;;;;;;;;;19.14;56.22;98729.43;2267150;78;50473;-73
2023/03/09 01:34:38;;;;;;;;;;;;;;;19.09;56.25;98729.31;2241443;78;51224;-73
2023/03/09 01:37:40;;;;;;;;;;;;;;;19.08;56.30;98733.84;2228134;80;50229;-73
2023/03/09 01:40:43;;;;;;;;;;;;;;;19.09;56.35;98725.30;2227997;80;50470;-73
2023/03/09 01:43:45;;;;;;;;;;;;;;;19.09;56.34;98715.91;2228177;79;50475;-73
2023/03/09 01:46:54;;;;;;;;;;;;;;;19.11;56.33;98713.78;2204037;80;52493;-73
2023/03/09 01:49:55;;;;;;;;;;;;;;;19.13;56.32;98707.67;2228079;78;22415;-73
2023/03/09 01:52:56;;;;;;;;;;;;;;;19.15;56.25;98714.97;2228230;80;50792;-73
2023/03/09 01:55:58;;;;;;;;;;;;;;;19.18;56.15;98716.36;2228127;79;50826;-73
2023/03/09 01:59:00;;;;;;;;;;;;;;;19.20;56.08;98710.25;2227715;79;50530;-73
2023/03/09 02:02:01;;;;;;;;;;;;;;;19.23;55.98;98709.77;2228224;79;51512;-73
2023/03/09 02:05:04;;;;;;;;;;;;;;;19.26;55.89;98706.09;2283307;77;51617;-73
2023/03/09 02:08:05;;;;;;;;;;;;;;;19.27;55.84;98707.73;2297119;77;51384;-73
2023/03/09 02:11:08;;;;;;;;;;;;;;;19.30;55.75;98699.22;2253242;77;51231;-73
2023/03/09 02:14:10;;;;;;;;;;;;;;;19.33;55.68;98699.27;2305973;77;51524;-73
2023/03/09 02:17:12;;;;;;;;;;;;;;;19.34;55.59;98699.55;2306243;77;51525;-74
2023/03/09 02:20:31;;;;;;;;;;;;;;;19.32;55.58;98711.88;2305249;77;50783;-73
2023/03/09 02:23:40;;;;;;;;;;;;;;;19.29;55.58;98708.83;2307504;77;52484;-74
2023/03/09 02:26:55;;;;;;;;;;;;;;;19.22;55.69;98706.28;2305530;77;50515;-73
2023/03/09 02:29:57;;;;;;;;;;;;;;;19.16;55.68;98692.45;2305263;76;51622;-73
2023/03/09 02:33:02;;;;;;;;;;;;;;;19.12;55.85;98690.78;2305530;77;51656;-73
2023/03/09 02:36:04;;;;;;;;;;;;;;;19.11;55.84;98689.66;2279648;77;52521;-73
2023/03/09 02:39:10;;;;;;;;;;;;;;;19.09;55.85;98679.19;2308682;77;50460;-74
2023/03/09 02:42:12;;;;;;;;;;;;;;;19.10;55.84;98674.11;2248535;77;50464;-73
2023/03/09 02:45:15;;;;;;;;;;;;;;;19.12;55.82;98676.56;2207056;80;51192;-73
2023/03/09 02:48:18;;;;;;;;;;;;;;;19.13;55.73;98671.48;2206935;80;52364;-74
2023/03/09 02:51:19;;;;;;;;;;;;;;;19.17;55.66;98667.83;2228626;78;51555;-73
2023/03/09 02:54:21;;;;;;;;;;;;;;;19.21;55.68;98666.28;2229551;80;51565;-73
2023/03/09 02:57:23;;;;;;;;;;;;;;;19.22;55.60;98674.11;2206844;80;51504;-74
2023/03/09 03:00:25;;;;;;;;;;;;;;;19.27;55.48;98666.70;2182977;80;52450;-74
2023/03/09 03:03:27;;;;;;;;;;;;;;;19.30;55.48;98663.02;2229556;80;50732;-74
2023/03/09 03:06:29;;;;;;;;;;;;;;;19.33;55.29;98666.56;2229488;78;50446;-74
2023/03/09 03:09:31;;;;;;;;;;;;;;;19.35;55.19;98661.78;2220459;77;52358;-74
2023/03/09 03:12:32;;;;;;;;;;;;;;;19.40;55.17;98659.73;2273195;78;51599;-74
2023/03/09 03:15:34;;;;;;;;;;;;;;;19.45;54.99;98655.01;2278260;78;50416;-74
2023/03/09 03:18:35;;;;;;;;;;;;;;;19.49;54.82;98658.83;2277838;77;50356;-74
2023/03/09 03:21:37;;;;;;;;;;;;;;;19.48;54.70;98653.19;2278189;76;51486;-74
2023/03/09 03:24:39;;;;;;;;;;;;;;;19.46;54.82;98657.97;2245865;78;51159;-74
2023/03/09 03:27:40;;;;;;;;;;;;;;;19.43;54.78;98661.13;2278172;77;50760;-75
2023/03/09 03:30:42;;;;;;;;;;;;;;;19.38;54.76;98655.12;2273721;77;51565;-72
2023/03/09 03:33:43;;;;;;;;;;;;;;;19.30;54.97;98650.95;2264159;77;50455;-73
2023/03/09 03:36:45;;;;;;;;;;;;;;;19.25;55.00;98642.80;2240998;78;51751;-73
2023/03/09 03:39:47;;;;;;;;;;;;;;;19.18;55.17;98642.64;2242141;78;51946;-74
2023/03/09 03:42:48;;;;;;;;;;;;;;;19.17;55.22;98644.51;2233544;78;50467;-74
2023/03/09 03:45:50;;;;;;;;;;;;;;;19.17;55.24;98652.55;2225141;80;50765;-74
2023/03/09 03:48:51;;;;;;;;;;;;;;;19.22;55.07;98651.31;2200733;80;52509;-74
2023/03/09 03:51:53;;;;;;;;;;;;;;;19.23;55.10;98645.42;2225346;80;51569;-74
2023/03/09 03:54:54;;;;;;;;;;;;;;;19.24;54.99;98659.11;2225339;80;51579;-74
2023/03/09 03:57:56;;;;;;;;;;;;;;;19.26;54.87;98648.44;2224928;80;51495;-74
2023/03/09 04:00:58;;;;;;;;;;;;;;;19.29;54.82;98635.92;2200844;80;52451;-75
2023/03/09 04:03:59;;;;;;;;;;;;;;;19.32;54.67;98632.77;2226751;77;49989;-75
2023/03/09 04:07:01;;;;;;;;;;;;;;;19.34;54.66;98627.98;2213080;78;50412;-75
2023/03/09 04:10:02;;;;;;;;;;;;;;;19.36;54.70;98638.45;2197071;81;50550;-75
2023/03/09 04:13:04;;;;;;;;;;;;;;;19.40;54.50;98621.38;2175727;81;51318;-76
2023/03/09 04:16:06;;;;;;;;;;;;;;;19.43;54.41;98623.58;2197501;80;50065;-75
2023/03/09 04:19:07;;;;;;;;;;;;;;;19.48;54.30;98638.44;2197374;81;51584;-75
2023/03/09 04:22:09;;;;;;;;;;;;;;;19.49;54.19;98627.45;2197304;80;51514;-75
2023/03/09 04:25:12;;;;;;;;;;;;;;;19.55;54.14;98628.39;2197647;81;51572;-75
2023/03/09 04:28:14;;;;;;;;;;;;;;;19.51;54.13;98625.35;2197383;80;50490;-75
2023/03/09 04:31:15;;;;;;;;;;;;;;;19.49;54.11;98626.11;2197419;80;50146;-75
2023/03/09 04:34:17;;;;;;;;;;;;;;;19.47;54.05;98628.23;2187785;79;51640;-76
2023/03/09 04:37:18;;;;;;;;;;;;;;;19.41;54.17;98641.24;2209407;78;49641;-74
2023/03/09 04:40:20;;;;;;;;;;;;;;;19.33;54.25;98634.38;2218651;79;50439;-75
2023/03/09 04:43:21;;;;;;;;;;;;;;;19.26;54.36;98635.03;2218980;79;50467;-75
2023/03/09 04:46:23;;;;;;;;;;;;;;;19.22;54.48;98629.06;2218885;78;50432;-75
2023/03/09 04:49:25;;;;;;;;;;;;;;;19.20;54.53;98635.98;2194754;79;51205;-75
2023/03/09 04:52:27;;;;;;;;;;;;;;;19.22;54.57;98641.94;2219253;78;51521;-75
2023/03/09 04:55:28;;;;;;;;;;;;;;;19.23;54.51;98637.37;2218914;79;50741;-74
2023/03/09 04:58:30;;;;;;;;;;;;;;;19.24;54.57;98641.68;2218470;78;50418;-75
2023/03/09 05:01:31;;;;;;;;;;;;;;;19.26;54.42;98650.31;2224300;78;49251;-74
2023/03/09 05:04:33;;;;;;;;;;;;;;;19.28;54.38;98648.21;2223966;79;50468;-75
2023/03/09 05:07:35;;;;;;;;;;;;;;;19.30;54.21;98660.33;2277421;77;50460;-75
2023/03/09 05:10:37;;;;;;;;;;;;;;;19.32;54.29;98667.63;2302034;77;51519;-75
2023/03/09 05:13:38;;;;;;;;;;;;;;;19.34;54.18;98668.20;2276391;77;52515;-77
2023/03/09 05:16:40;;;;;;;;;;;;;;;19.40;54.09;98669.66;2302346;77;51521;-75
2023/03/09 05:19:42;;;;;;;;;;;;;;;19.43;54.26;98675.88;2301784;75;51508;-76
2023/03/09 05:22:43;;;;;;;;;;;;;;;19.44;54.33;98675.63;2302056;77;51542;-75
2023/03/09 05:25:45;;;;;;;;;;;;;;;19.47;54.29;98677.86;2304154;77;52507;-75
2023/03/09 05:28:46;;;;;;;;;;;;;;;19.43;54.53;98692.78;2301715;77;51880;-74
2023/03/09 05:31:48;;;;;;;;;;;;;;;19.36;54.69;98682.17;2303287;77;51488;-73
2023/03/09 05:34:52;;;;;;;;;;;;;;;19.31;54.82;98686.62;2277342;77;51521;-72
2023/03/09 05:37:54;;;;;;;;;;;;;;;19.25;54.75;98687.04;2213086;79;49651;-72
2023/03/09 05:40:55;;;;;;;;;;;;;;;19.22;54.69;98694.22;2228159;79;50771;-73
2023/03/09 05:43:58;;;;;;;;;;;;;;;19.18;54.65;98687.68;2228002;79;50507;-73
2023/03/09 05:47:00;;;;;;;;;;;;;;;19.21;54.58;98688.55;2228160;79;50771;-74
2023/03/09 05:50:02;;;;;;;;;;;;;;;19.19;54.53;98693.35;2205757;80;51438;-73
2023/03/09 05:53:03;;;;;;;;;;;;;;;19.18;54.51;98694.38;2228471;80;50806;-74
2023/03/09 05:56:05;;;;;;;;;;;;;;;19.21;54.41;98703.30;2228368;80;50793;-75
2023/03/09 05:59:07;;;;;;;;;;;;;;;19.25;54.28;98692.93;2228306;80;51928;-72
2023/03/09 06:02:08;;;;;;;;;;;;;;;19.28;54.23;98695.14;2222329;78;51163;-72
2023/03/09 06:05:10;;;;;;;;;;;;;;;19.30;54.15;98699.22;2268738;78;50526;-72
2023/03/09 06:08:11;;;;;;;;;;;;;;;19.33;54.12;98708.66;2277022;77;50327;-71
2023/03/09 06:11:13;;;;;;;;;;;;;;;19.39;54.05;98721.64;2278165;77;50459;-70
2023/03/09 06:14:15;;;;;;;;;;;;;;;19.40;54.02;98736.17;2246057;78;51089;-69
2023/03/09 06:17:16;;;;;;;;;;;;;;;19.43;53.97;98735.70;2278300;78;50095;-71
2023/03/09 06:20:18;;;;;;;;;;;;;;;19.43;54.10;98730.86;2278009;77;50501;-70
2023/03/09 06:23:19;;;;;;;;;;;;;;;19.41;54.30;98734.30;2278297;78;50546;-70
2023/03/09 06:26:21;;;;;;;;;;;;;;;19.37;54.50;98747.38;2252962;78;49611;-71
2023/03/09 06:29:22;;;;;;;;;;;;;;;19.31;54.75;98750.45;2278447;77;50482;-70
2023/03/09 06:32:24;;;;;;;;;;;;;;;19.24;54.87;98751.11;2278620;78;50754;-69
2023/03/09 06:35:26;;;;;;;;;;;;;;;19.19;55.00;98749.66;2230829;78;51649;-70
2023/03/09 06:38:27;;;;;;;;;;;;;;;19.16;55.10;98760.82;2219423;78;52471;-69
2023/03/09 06:41:32;;;;;;;;;;;;;;;19.15;55.10;98756.52;2267490;78;50464;-72
2023/03/09 06:44:34;;;;;;;;;;;;;;;19.18;55.08;98766.77;2294614;77;51997;-72
2023/03/09 06:47:35;;;;;;;;;;;;;;;19.23;55.35;98773.59;2267092;78;50419;-73
2023/03/09 06:50:37;;;;;;;;;;;;;;;19.27;55.31;98778.80;2264892;78;51237;-74
2023/03/09 06:53:38;;;;;;;;;;;;;;;19.32;55.24;98784.27;2229456;80;50241;-73
2023/03/09 06:56:40;;;;;;;;;;;;;;;19.36;55.12;98790.78;2229540;80;50766;-73
2023/03/09 06:59:41;;;;;;;;;;;;;;;19.44;55.03;98798.20;2206458;79;50795;-73
2023/03/09 07:02:43;;;;;;;;;;;;;;;19.46;54.97;98802.81;2183137;80;52482;-73
2023/03/09 07:05:45;;;;;;;;;;;;;;;19.51;54.85;98800.23;2265047;78;51634;-74
2023/03/09 07:08:46;;;;;;;;;;;;;;;19.51;54.86;98804.27;2228188;80;51492;-73
2023/03/09 07:11:48;;;;;;;;;;;;;;;19.50;55.03;98821.42;2228035;80;51521;-76
2023/03/09 07:14:50;;;;;;;;;;;;;;;19.53;54.89;98824.97;2204000;80;51191;-72
2023/03/09 07:17:51;;;;;;;;;;;;;;;19.48;54.91;98838.27;2250758;78;50767;-76
2023/03/09 07:20:53;;;;;;;;;;;;;;;19.42;54.99;98839.18;2293607;77;51470;-74
2023/03/09 07:23:54;;;;;;;;;;;;;;;19.34;55.20;98843.86;2293829;77;51637;-73
2023/03/09 07:26:56;;;;;;;;;;;;;;;19.34;55.38;98859.95;2293878;76;51490;-73
2023/03/09 07:29:58;;;;;;;;;;;;;;;19.35;55.60;98858.08;2293613;77;51489;-74
2023/03/09 07:32:59;;;;;;;;;;;;;;;19.37;55.53;98873.42;2294392;77;50281;-73
2023/03/09 07:36:07;;;;;;;;;;;;;;;19.42;55.50;98873.55;2267007;78;51547;-71
2023/03/09 07:39:09;;;;;;;;;;;;;;;19.47;55.46;98876.35;2294260;77;49579;-73
2023/03/09 07:42:10;;;;;;;;;;;;;;;19.52;55.54;98883.67;2267058;78;50487;-75
2023/03/09 07:45:12;;;;;;;;;;;;;;;19.52;55.51;98892.56;2267178;78;50447;-76
2023/03/09 07:48:15;;;;;;;;;;;;;;;19.59;55.13;98884.39;2295766;77;50459;-76
2023/03/09 07:51:17;;;;;;;;;;;;;;;19.67;54.97;98894.80;2262189;78;50740;-77
2023/03/09 07:54:18;;;;;;;;;;;;;;;19.73;54.86;98900.59;2263891;78;51186;-71
2023/03/09 07:57:20;;;;;;;;;;;;;;;19.77;54.71;98903.63;2262273;78;50748;-73
2023/03/09 08:00:23;;;;;;;;;;;;;;;19.80;54.66;98901.80;2262168;78;50498;-74
2023/03/09 08:03:24;;;;;;;;;;;;;;;19.87;54.53;98904.38;2262303;78;50451;-73
2023/03/09 08:06:26;;;;;;;;;;;;;;;19.95;54.47;98917.45;2237176;78;51217;-73
2023/03/09 08:09:28;;;;;;;;;;;;;;;20.02;54.38;98931.58;2262322;78;51894;-73
2023/03/09 08:12:29;;;;;;;;;;;;;;;20.08;54.04;98942.70;2262433;78;51558;-75
2023/03/09 08:15:31;;;;;;;;;;;;;;;20.06;53.96;98946.15;2263519;77;50489;-75
2023/03/09 08:18:32;;;;;;;;;;;;;;;20.04;54.04;98949.61;2292465;75;50570;-73
2023/03/09 08:21:34;;;;;;;;;;;;;;;19.99;54.15;98949.50;2305194;77;51572;-74
2023/03/09 08:24:35;;;;;;;;;;;;;;;19.90;54.33;98959.75;2305502;76;50399;-75
2023/03/09 08:27:38;;;;;;;;;;;;;;;19.83;54.51;98960.91;2305223;77;51506;-76
2023/03/09 08:30:40;;;;;;;;;;;;;;;19.76;54.71;98955.67;2307180;77;50873;-75
2023/03/09 08:33:41;;;;;;;;;;;;;;;19.75;54.83;98962.88;2305432;77;51523;-75
2023/03/09 08:36:43;;;;;;;;;;;;;;;19.78;54.93;98962.94;2305546;76;51557;-75
2023/03/09 08:39:45;;;;;;;;;;;;;;;19.84;54.82;98965.25;2305068;76;50446;-73
2023/03/09 08:42:46;;;;;;;;;;;;;;;19.90;54.66;98969.67;2279634;77;51117;-75
2023/03/09 08:45:48;;;;;;;;;;;;;;;19.93;54.49;98973.23;2300683;76;51525;-73
2023/03/09 08:48:49;;;;;;;;;;;;;;;19.95;54.48;98977.84;2251779;78;50158;-74
2023/03/09 08:51:51;;;;;;;;;;;;;;;19.98;54.24;98974.69;2228116;80;50433;-74
2023/03/09 08:54:52;;;;;;;;;;;;;;;19.98;53.88;98991.61;2205646;80;51175;-73
2023/03/09 08:57:56;;;;;;;;;;;;;;;20.02;53.63;98997.35;2227932;80;50485;-75
2023/03/09 09:00:57;;;;;;;;;;;;;;;20.04;53.46;98993.91;2227755;80;51606;-73
2023/03/09 09:03:59;;;;;;;;;;;;;;;20.06;53.37;98988.30;2228050;80;51490;-73
2023/03/09 09:07:00;;;;;;;;;;;;;;;20.04;53.35;98989.89;2203812;80;49598;-74
2023/03/09 09:10:02;;;;;;;;;;;;;;;19.97;53.37;99000.73;2227869;80;50424;-73
2023/03/09 09:13:03;;;;;;;;;;;;;;;19.90;53.31;99005.91;2227853;80;51505;-73
2023/03/09 09:16:06;;;;;;;;;;;;;;;19.80;53.45;99015.34;2235312;78;51483;-74
2023/03/09 09:19:07;;;;;;;;;;;;;;;19.72;53.58;99025.60;2223318;79;52374;-73
2023/03/09 09:22:09;;;;;;;;;;;;;;;19.65;53.67;99036.92;2228006;80;52009;-74
2023/03/09 09:25:10;;;;;;;;;;;;;;;19.63;53.75;99041.72;2227856;80;51459;-73
2023/03/09 09:28:12;;;;;;;;;;;;;;;19.64;53.71;99045.50;2228041;80;51509;-73
2023/03/09 09:31:16;;;;;;;;;;;;;;;19.66;53.67;99054.14;2205815;80;52380;-73
2023/03/09 09:34:17;;;;;;;;;;;;;;;19.70;53.50;99053.18;2228172;79;50459;-73
2023/03/09 09:37:19;;;;;;;;;;;;;;;19.70;53.39;99060.70;2266174;77;50445;-75
2023/03/09 09:40:21;;;;;;;;;;;;;;;19.75;53.38;99060.02;2268385;76;50368;-74
2023/03/09 09:43:22;;;;;;;;;;;;;;;19.79;53.29;99059.34;2259821;77;52464;-76
2023/03/09 09:46:24;;;;;;;;;;;;;;;19.84;53.27;99058.66;2239741;77;51612;-75
2023/03/09 09:49:26;;;;;;;;;;;;;;;19.88;53.28;99067.05;2258362;78;50402;-76
2023/03/09 09:52:32;;;;;;;;;;;;;;;19.92;53.23;99059.66;2247582;77;51511;-74
2023/03/09 09:55:35;;;;;;;;;;;;;;;19.96;53.30;99067.56;2270210;78;51014;-72
2023/03/09 09:58:47;;;;;;;;;;;;;;;20.01;53.14;99081.61;2267253;77;50461;-75
2023/03/09 10:01:53;;;;;;;;;;;;;;;19.98;53.29;99083.42;2229044;80;50760;-75
2023/03/09 10:04:56;;;;;;;;;;;;;;;19.93;53.42;99074.70;2260434;77;51488;-74
2023/03/09 10:08:00;;;;;;;;;;;;;;;19.87;53.42;99074.83;2307345;77;51181;-74
2023/03/09 10:11:09;;;;;;;;;;;;;;;19.80;53.45;99089.67;2252979;76;50441;-72
2023/03/09 10:14:29;;;;;;;;;;;;;;;19.71;53.54;99099.92;2244264;77;51628;-73
2023/03/09 10:17:36;;;;;;;;;;;;;;;19.00;45.82;99093.89;2262293;78;51512;-75
2023/03/09 10:20:38;;;;;;;;;;;;;;;18.82;47.28;99095.52;2294499;77;51682;-72
2023/03/09 10:23:39;;;;;;;;;;;;;;;18.87;47.03;99098.88;2294613;77;49860;-74
2023/03/09 10:26:43;;;;;;;;;;;;;;;18.91;47.78;99098.21;2267046;78;51471;-76
2023/03/09 10:29:46;;;;;;;;;;;;;;;18.93;48.40;99103.33;2267585;77;50760;-73
2023/03/09 10:32:49;;;;;;;;;;;;;;;18.99;48.57;99108.34;2243921;78;51198;-74
2023/03/09 10:35:52;;;;;;;;;;;;;;;18.99;48.77;99125.23;2267005;78;50492;-73
2023/03/09 10:38:54;;;;;;;;;;;;;;;19.01;49.07;99123.66;2267189;77;50469;-73
2023/03/09 10:41:56;;;;;;;;;;;;;;;19.02;49.39;99119.95;2266977;78;51496;-73
2023/03/09 10:44:59;;;;;;;;;;;;;;;19.06;49.60;99138.06;2296652;77;51040;-74
2023/03/09 10:48:06;;;;;;;;;;;;;;;19.07;49.84;99141.55;2235471;77;51623;-76
2023/03/09 10:51:09;;;;;;;;;;;;;;;19.08;50.03;99147.20;2206955;80;51545;-75
2023/03/09 10:54:15;;;;;;;;;;;;;;;19.07;50.29;99145.05;2227489;78;51473;-76
2023/03/09 10:57:27;;;;;;;;;;;;;;;19.13;50.25;99152.72;2206120;80;51220;-77
2023/03/09 11:00:29;;;;;;;;;;;;;;;19.20;50.20;99145.42;2229928;78;50785;-78
2023/03/09 11:03:37;;;;;;;;;;;;;;;19.26;50.13;99141.83;2229694;80;50798;-75
2023/03/09 11:06:38;;;;;;;;;;;;;;;19.29;50.14;99156.16;2229740;80;50895;-76
2023/03/09 11:09:45;;;;;;;;;;;;;;;19.34;50.12;99153.63;2207337;79;51614;-77
2023/03/09 11:12:47;;;;;;;;;;;;;;;19.36;50.10;99154.19;2229648;80;51482;-74
2023/03/09 11:15:50;;;;;;;;;;;;;;;19.40;50.10;99163.97;2259145;77;50475;-74
2023/03/09 11:19:09;;;;;;;;;;;;;;;19.44;50.08;99162.98;2267078;77;50645;-75
2023/03/09 11:22:11;;;;;;;;;;;;;;;19.46;50.04;99173.79;2294608;77;51035;-74
2023/03/09 11:25:14;;;;;;;;;;;;;;;19.51;50.02;99172.59;2267132;78;50786;-72
2023/03/09 11:28:20;;;;;;;;;;;;;;;19.55;50.10;99179.69;2270603;76;51586;-72
2023/03/09 11:31:27;;;;;;;;;;;;;;;19.55;49.39;99177.01;2267037;78;51133;-74
2023/03/09 11:34:30;;;;;;;;;;;;;;;19.53;48.72;99172.38;2245027;78;49724;-74
2023/03/09 11:37:39;;;;;;;;;;;;;;;19.50;48.01;99177.67;2267033;78;50432;-73
2023/03/09 11:40:41;;;;;;;;;;;;;;;19.55;47.80;99185.87;2267149;77;50473;-74
2023/03/09 11:43:43;;;;;;;;;;;;;;;19.58;47.99;99188.62;2267849;77;50791;-73
2023/03/09 11:46:44;;;;;;;;;;;;;;;19.59;48.01;99183.55;2239454;78;51235;-73
2023/03/09 11:49:46;;;;;;;;;;;;;;;19.63;48.02;99188.77;2227789;79;51586;-72
2023/03/09 11:52:52;;;;;;;;;;;;;;;19.65;48.49;99194.73;2228100;80;51501;-74
2023/03/09 11:55:54;;;;;;;;;;;;;;;19.67;48.79;99188.62;2228079;80;50827;-73
2023/03/09 11:58:57;;;;;;;;;;;;;;;19.66;49.18;99201.73;2205537;80;51140;-76
2023/03/09 12:02:15;;;;;;;;;;;;;;;19.72;49.42;99216.95;2228077;80;51543;-74
2023/03/09 12:05:16;;;;;;;;;;;;;;;19.53;50.35;99201.89;2228215;80;51636;-74
2023/03/09 12:08:29;;;;;;;;;;;;;;;19.31;52.53;99202.85;2227919;80;50809;-76
2023/03/09 12:11:38;;;;;;;;;;;;;;;19.17;53.49;99199.50;2230340;78;52348;-73
2023/03/09 12:14:43;;;;;;;;;;;;;;;19.11;54.55;99196.34;2245915;77;50470;-74
2023/03/09 12:17:55;;;;;;;;;;;;;;;19.07;55.46;99204.55;2279354;76;50522;-75
2023/03/09 12:21:00;;;;;;;;;;;;;;;19.05;55.87;99195.38;2277847;77;50766;-72
2023/03/09 12:24:03;;;;;;;;;;;;;;;19.06;56.58;99196.19;2245793;78;51002;-72
2023/03/09 12:27:12;;;;;;;;;;;;;;;19.01;57.24;99204.08;2278231;77;50450;-73
2023/03/09 12:30:24;;;;;;;;;;;;;;;19.01;57.28;99192.02;2278454;78;50475;-75
2023/03/09 12:33:45;;;;;;;;;;;;;;;19.00;57.86;99203.27;2278263;76;50526;-74
2023/03/09 12:36:47;;;;;;;;;;;;;;;19.00;58.05;99199.77;2270639;78;52425;-73
2023/03/09 12:39:48;;;;;;;;;;;;;;;18.99;58.39;99208.34;2277813;78;51522;-74
2023/03/09 12:42:50;;;;;;;;;;;;;;;18.97;58.60;99209.59;2277892;78;50482;-74
2023/03/09 12:45:52;;;;;;;;;;;;;;;19.00;58.69;99206.47;2271093;77;51537;-74
2023/03/09 12:48:54;;;;;;;;;;;;;;;19.02;58.43;99211.09;2307057;77;52330;-72
2023/03/09 12:51:57;;;;;;;;;;;;;;;19.01;58.55;99214.30;2305394;76;51476;-74
2023/03/09 12:55:00;;;;;;;;;;;;;;;18.99;58.67;99215.04;2281326;77;52383;-72
2023/03/09 12:58:09;;;;;;;;;;;;;;;18.96;58.80;99210.62;2305040;77;51553;-74
2023/03/09 13:01:18;;;;;;;;;;;;;;;19.00;58.82;99215.85;2305050;76;50800;-74
2023/03/09 13:04:22;;;;;;;;;;;;;;;18.90;58.92;99221.18;2292072;77;51684;-74
2023/03/09 13:07:24;;;;;;;;;;;;;;;18.79;59.09;99215.20;2272693;78;50802;-75
2023/03/09 13:10:29;;;;;;;;;;;;;;;18.79;59.58;99212.53;2278123;77;50423;-74
2023/03/09 13:13:35;;;;;;;;;;;;;;;18.81;59.98;99213.13;2245785;76;52453;-74
2023/03/09 13:16:41;;;;;;;;;;;;;;;18.76;60.54;99220.20;2278242;78;50767;-74
2023/03/09 13:19:48;;;;;;;;;;;;;;;18.72;60.84;99223.26;2278039;76;50759;-74
2023/03/09 13:22:49;;;;;;;;;;;;;;;18.74;60.89;99220.38;2277849;78;51531;-75
2023/03/09 13:25:51;;;;;;;;;;;;;;;18.75;61.05;99211.81;2278293;76;51557;-74
2023/03/09 13:28:53;;;;;;;;;;;;;;;18.71;61.26;99214.12;2278191;76;51492;-76
2023/03/09 13:31:55;;;;;;;;;;;;;;;18.74;61.29;99219.03;2278349;76;50444;-75
2023/03/09 13:34:57;;;;;;;;;;;;;;;18.74;61.37;99229.75;2273326;77;50524;-76
2023/03/09 13:37:58;;;;;;;;;;;;;;;18.76;61.38;99231.73;2237638;78;52433;-76
2023/03/09 13:41:01;;;;;;;;;;;;;;;18.77;61.40;99230.67;2267087;78;51516;-76
2023/03/09 13:44:03;;;;;;;;;;;;;;;18.78;61.38;99231.00;2267117;78;51657;-76
2023/03/09 13:47:05;;;;;;;;;;;;;;;18.81;61.27;99225.72;2267141;78;50472;-76
2023/03/09 13:50:09;;;;;;;;;;;;;;;18.83;61.19;99239.70;2294460;77;50163;-75
2023/03/09 13:53:18;;;;;;;;;;;;;;;18.83;61.07;99242.38;2268112;77;52020;-73
2023/03/09 13:56:19;;;;;;;;;;;;;;;18.81;61.20;99246.63;2267057;78;51449;-74
2023/03/09 13:59:21;;;;;;;;;;;;;;;18.80;61.26;99257.56;2266851;78;51493;-75
2023/03/09 14:02:24;;;;;;;;;;;;;;;18.80;61.32;99255.69;2294646;77;52221;-75
2023/03/09 14:05:26;;;;;;;;;;;;;;;18.78;61.40;99255.61;2269475;76;51472;-75
2023/03/09 14:08:27;;;;;;;;;;;;;;;18.77;61.48;99249.95;2305212;77;50454;-74
2023/03/09 14:11:29;;;;;;;;;;;;;;;18.76;61.64;99257.19;2305437;77;50774;-75
2023/03/09 14:14:33;;;;;;;;;;;;;;;18.75;61.71;99258.20;2307223;75;51171;-75
2023/03/09 14:17:35;;;;;;;;;;;;;;;18.75;61.73;99261.37;2305802;77;22306;-73
2023/03/09 14:20:40;;;;;;;;;;;;;;;18.71;61.88;99254.30;2305100;77;51556;-72
2023/03/09 14:23:42;;;;;;;;;;;;;;;18.70;61.92;99247.29;2305418;77;50573;-74
2023/03/09 14:26:44;;;;;;;;;;;;;;;18.71;61.98;99247.09;2307449;77;51663;-73
2023/03/09 14:29:46;;;;;;;;;;;;;;;18.74;61.80;99236.45;2305254;77;50508;-73
2023/03/09 14:33:02;;;;;;;;;;;;;;;18.73;61.79;99237.50;2305444;77;51620;-74
2023/03/09 14:36:05;;;;;;;;;;;;;;;18.75;61.79;99236.77;2281379;76;51620;-72
2023/03/09 14:39:10;;;;;;;;;;;;;;;18.75;61.68;99234.09;2268786;78;51135;-73
2023/03/09 14:42:13;;;;;;;;;;;;;;;18.76;61.73;99245.13;2268942;77;51960;-72
2023/03/09 14:45:16;;;;;;;;;;;;;;;18.72;61.78;99237.99;2267311;78;51566;-73
2023/03/09 14:48:18;;;;;;;;;;;;;;;18.74;61.84;99215.02;2267018;78;50751;-73
2023/03/09 14:51:24;;;;;;;;;;;;;;;18.72;62.10;99229.14;2294662;77;52358;-73
2023/03/09 14:54:27;;;;;;;;;;;;;;;18.72;62.37;99224.59;2267369;77;51552;-72
2023/03/09 14:57:28;;;;;;;;;;;;;;;18.72;62.43;99215.74;2294399;77;50730;-72
2023/03/09 15:00:30;;;;;;;;;;;;;;;18.71;62.51;99215.45;2266994;78;51539;-72
2023/03/09 15:03:32;;;;;;;;;;;;;;;18.71;62.68;99231.01;2268742;78;49703;-72
2023/03/09 15:06:33;;;;;;;;;;;;;;;18.69;62.55;99226.91;2241976;78;49585;-73
2023/03/09 15:09:35;;;;;;;;;;;;;;;18.69;62.66;99241.64;2262218;78;50752;-73
2023/03/09 15:12:37;;;;;;;;;;;;;;;18.68;62.51;99258.24;2262471;78;50468;-72
2023/03/09 15:15:38;;;;;;;;;;;;;;;18.69;62.59;99250.49;2264142;78;49619;-72
2023/03/09 15:18:40;;;;;;;;;;;;;;;18.70;62.72;99244.61;2262137;78;50397;-73
2023/03/09 15:21:42;;;;;;;;;;;;;;;18.67;62.85;99228.97;2262428;78;50403;-73
2023/03/09 15:24:43;;;;;;;;;;;;;;;18.71;62.89;99226.98;2262460;78;50386;-72
2023/03/09 15:27:46;;;;;;;;;;;;;;;18.64;63.14;99236.11;2237200;78;52353;-73
2023/03/09 15:30:47;;;;;;;;;;;;;;;18.61;63.26;99242.73;2262244;78;50746;-73
2023/03/09 15:33:49;;;;;;;;;;;;;;;18.60;63.35;99250.48;2267661;77;51609;-75
2023/03/09 15:36:51;;;;;;;;;;;;;;;18.59;63.38;99254.17;2266921;77;51704;-74
2023/03/09 15:39:52;;;;;;;;;;;;;;;18.58;63.37;99244.51;2304884;75;51496;-74
2023/03/09 15:42:54;;;;;;;;;;;;;;;18.64;63.17;99256.20;2305333;77;51568;-75
2023/03/09 15:45:55;;;;;;;;;;;;;;;18.63;63.15;99246.54;2302258;77;51558;-75
2023/03/09 15:48:57;;;;;;;;;;;;;;;18.63;63.10;99237.17;2287791;77;51550;-75
2023/03/09 15:51:58;;;;;;;;;;;;;;;18.65;62.96;99232.39;2239886;78;52506;-73